Time;durP1;ratioP1;P1;durP2;ratioP2;P2;SDS_P1;SDS_P2;PMS_P1;PMS_P2;Temp;Humidity;BMP_temperature;BMP_pressure;BME280_temperature;BME280_humidity;BME280_pressure;Samples;Min_cycle;Max_cycle;Signal;HPM_P1;HPM_P2
2024/04/18 00:03:20;;;;;;;4.53;4.13;;;9.10;81.40;;;;;;11064559;26;20230;-67
2024/04/18 00:08:26;;;;;;;5.63;4.45;;;9.10;81.70;;;;;;11062705;26;20767;-66
2024/04/18 00:13:34;;;;;;;5.50;4.27;;;9.10;81.60;;;;;;11067430;26;20820;-67
2024/04/18 00:18:39;;;;;;;5.37;4.63;;;9.10;81.70;;;;;;11062824;26;20359;-68
2024/04/18 00:23:46;;;;;;;5.03;4.60;;;9.10;81.80;;;;;;11060845;26;20250;-67
2024/04/18 00:28:54;;;;;;;4.37;3.97;;;9.10;81.80;;;;;;11058719;26;20241;-68
2024/04/18 00:33:59;;;;;;;4.90;4.40;;;9.10;81.80;;;;;;11059964;26;20362;-67
2024/04/18 00:39:04;;;;;;;4.57;4.00;;;9.10;81.70;;;;;;11058702;26;20359;-68
2024/04/18 00:44:13;;;;;;;7.87;7.07;;;9.10;81.80;;;;;;11053387;26;20250;-69
2024/04/18 00:49:19;;;;;;;6.93;6.22;;;9.10;81.80;;;;;;11052598;26;20416;-66
2024/04/18 00:54:25;;;;;;;7.40;6.60;;;9.10;81.70;;;;;;11054108;26;20364;-67
2024/04/18 00:59:33;;;;;;;9.90;7.73;;;9.10;81.60;;;;;;11058545;26;20339;-67
2024/04/18 01:04:38;;;;;;;6.70;6.10;;;9.10;81.70;;;;;;11061121;26;20343;-68
2024/04/18 01:09:44;;;;;;;5.23;4.67;;;9.10;81.90;;;;;;11070543;26;20303;-68
2024/04/18 01:14:52;;;;;;;5.40;4.10;;;9.10;81.70;;;;;;11067876;26;20355;-68
2024/04/18 01:19:57;;;;;;;5.80;4.97;;;9.10;81.80;;;;;;11065776;26;20229;-67
2024/04/18 01:25:03;;;;;;;4.43;4.03;;;9.10;82.10;;;;;;11067227;26;20238;-68
2024/04/18 01:30:11;;;;;;;5.97;4.40;;;9.10;82.30;;;;;;11064430;26;20850;-67
2024/04/18 01:35:17;;;;;;;6.22;4.60;;;9.10;82.00;;;;;;11069919;26;20308;-68
2024/04/18 01:40:22;;;;;;;7.27;5.07;;;9.00;82.00;;;;;;11065300;26;20303;-66
2024/04/18 01:45:30;;;;;;;6.07;4.77;;;9.00;82.20;;;;;;11059365;26;20346;-69
2024/04/18 01:50:36;;;;;;;6.33;4.43;;;8.90;82.50;;;;;;11061423;26;20291;-68
2024/04/18 01:55:41;;;;;;;5.73;4.43;;;9.00;82.20;;;;;;10974094;26;20246;-67
2024/04/18 02:00:49;;;;;;;5.20;4.70;;;8.90;82.40;;;;;;11055948;26;20339;-66
2024/04/18 02:05:55;;;;;;;6.53;4.77;;;8.90;82.50;;;;;;11061379;26;20320;-67
2024/04/18 02:11:00;;;;;;;5.63;4.50;;;8.90;82.10;;;;;;11060387;26;20872;-68
2024/04/18 02:16:08;;;;;;;6.67;4.10;;;8.90;82.30;;;;;;11066140;26;20234;-67
2024/04/18 02:21:14;;;;;;;5.47;4.03;;;8.90;82.50;;;;;;11062861;26;20258;-67
2024/04/18 02:26:19;;;;;;;4.53;3.97;;;8.90;82.30;;;;;;11061057;26;20238;-67
2024/04/18 02:31:27;;;;;;;4.53;3.67;;;8.90;82.50;;;;;;11064833;26;20229;-65
2024/04/18 02:36:32;;;;;;;5.50;3.97;;;8.90;82.40;;;;;;11070608;26;22648;-66
2024/04/18 02:41:38;;;;;;;5.10;3.87;;;8.90;82.30;;;;;;11063486;26;20237;-69
2024/04/18 02:46:46;;;;;;;4.40;3.57;;;8.90;82.30;;;;;;11063124;26;20853;-68
2024/04/18 02:51:51;;;;;;;5.57;4.13;;;8.90;82.20;;;;;;11058435;26;20245;-67
2024/04/18 02:56:57;;;;;;;5.10;3.60;;;8.90;82.30;;;;;;11059881;26;20238;-66
2024/04/18 03:02:05;;;;;;;6.10;3.93;;;8.90;82.10;;;;;;11059438;26;20335;-67
2024/04/18 03:07:10;;;;;;;5.03;3.70;;;8.90;82.30;;;;;;11059256;26;22999;-66
2024/04/18 03:12:17;;;;;;;5.67;3.70;;;9.00;82.40;;;;;;11061956;26;20233;-67
2024/04/18 03:17:25;;;;;;;5.43;4.10;;;8.90;82.40;;;;;;11061112;26;22413;-70
2024/04/18 03:22:34;;;;;;;4.37;3.97;;;8.90;82.90;;;;;;11064960;26;22099;-67
2024/04/18 03:27:39;;;;;;;5.57;4.18;;;8.90;83.10;;;;;;11062918;26;21235;-68
2024/04/18 03:32:47;;;;;;;4.67;4.27;;;8.90;83.10;;;;;;11059447;26;20316;-68
2024/04/18 03:37:53;;;;;;;5.00;4.50;;;8.90;83.70;;;;;;11060285;26;20246;-67
2024/04/18 03:42:58;;;;;;;5.07;4.25;;;8.90;83.40;;;;;;11059755;26;20664;-68
2024/04/18 03:48:07;;;;;;;7.13;4.80;;;8.80;84.10;;;;;;11058981;26;20365;-67
2024/04/18 03:53:12;;;;;;;7.33;5.00;;;8.80;83.60;;;;;;11061334;26;20231;-68
2024/04/18 03:58:17;;;;;;;5.93;4.47;;;8.70;83.90;;;;;;11057792;26;20316;-67
2024/04/18 04:03:25;;;;;;;5.53;4.90;;;8.70;84.30;;;;;;11073102;26;20245;-70
2024/04/18 04:08:31;;;;;;;5.37;4.53;;;8.70;84.40;;;;;;11090920;26;20234;-67
2024/04/18 04:13:36;;;;;;;5.37;4.80;;;8.70;84.60;;;;;;11068832;26;22631;-65
2024/04/18 04:18:45;;;;;;;4.77;4.13;;;8.70;84.80;;;;;;11077541;26;20307;-69
2024/04/18 04:23:51;;;;;;;5.23;3.80;;;8.60;84.10;;;;;;11072086;26;20241;-68
2024/04/18 04:28:56;;;;;;;8.77;4.40;;;8.60;83.90;;;;;;11067342;26;20255;-68
2024/04/18 04:34:05;;;;;;;4.87;3.87;;;8.60;84.50;;;;;;11068340;26;20233;-66
2024/04/18 04:39:11;;;;;;;5.93;3.85;;;8.60;84.10;;;;;;11067723;26;20250;-71
2024/04/18 04:44:16;;;;;;;5.63;3.97;;;8.60;84.20;;;;;;11064798;26;20357;-69
2024/04/18 04:49:24;;;;;;;6.37;4.20;;;8.60;83.80;;;;;;11068405;26;20330;-70
2024/04/18 04:54:29;;;;;;;8.07;4.13;;;8.60;84.10;;;;;;11070547;26;20338;-71
2024/04/18 04:59:35;;;;;;;6.07;3.97;;;8.60;84.50;;;;;;11066749;26;20237;-68
2024/04/18 05:04:43;;;;;;;7.00;4.17;;;8.60;83.90;;;;;;11068641;26;20586;-68
2024/04/18 05:09:49;;;;;;;7.80;4.40;;;8.60;84.40;;;;;;11068561;26;20911;-65
2024/04/18 05:14:54;;;;;;;7.57;3.87;;;8.70;84.70;;;;;;11065349;26;20234;-64
2024/04/18 05:20:02;;;;;;;6.10;4.23;;;8.70;84.20;;;;;;11066181;26;20230;-64
2024/04/18 05:25:08;;;;;;;5.30;4.03;;;8.70;84.10;;;;;;11064773;26;20238;-65
2024/04/18 05:35:41;;;;;;;5.90;3.93;;;8.70;83.90;;;;;;11064748;26;20343;-66
2024/04/18 05:40:47;;;;;;;7.03;4.17;;;8.70;83.60;;;;;;11065504;26;20330;-68
2024/04/18 05:45:53;;;;;;;9.13;4.10;;;8.70;84.00;;;;;;11057814;26;20241;-66
2024/04/18 05:51:01;;;;;;;4.67;3.90;;;8.70;83.70;;;;;;11057807;26;21393;-68
2024/04/18 05:56:07;;;;;;;4.43;3.53;;;8.70;83.60;;;;;;11068649;26;20356;-65
2024/04/18 06:01:13;;;;;;;7.97;3.75;;;8.70;83.40;;;;;;11066868;26;20238;-65
2024/04/18 06:06:21;;;;;;;7.53;4.00;;;8.70;82.80;;;;;;11066076;26;20687;-66
2024/04/18 06:11:35;;;;;;;8.10;3.90;;;8.70;82.90;;;;;;11065939;26;20229;-66
2024/04/18 06:16:41;;;;;;;7.53;3.67;;;8.70;82.80;;;;;;11066472;26;20241;-65
2024/04/18 06:21:49;;;;;;;6.80;3.60;;;8.80;82.20;;;;;;11066646;26;20318;-65
2024/04/18 06:26:54;;;;;;;6.60;3.10;;;8.70;82.30;;;;;;11063989;26;20347;-66
2024/04/18 06:32:00;;;;;;;5.17;3.13;;;8.70;82.30;;;;;;11062165;26;20230;-66
2024/04/18 06:37:09;;;;;;;13.50;3.60;;;8.80;82.10;;;;;;11066951;26;20254;-67
2024/04/18 06:42:14;;;;;;;5.30;3.20;;;8.80;81.80;;;;;;11065437;26;20354;-67
2024/04/18 06:47:19;;;;;;;7.53;3.40;;;8.90;81.90;;;;;;10973501;26;20351;-67
2024/04/18 06:52:27;;;;;;;5.53;3.30;;;9.00;81.50;;;;;;11067135;26;20324;-66
2024/04/18 06:57:32;;;;;;;6.53;3.27;;;9.00;81.40;;;;;;11065860;26;20234;-67
2024/04/18 07:02:38;;;;;;;6.73;3.43;;;9.10;81.40;;;;;;11070050;26;20230;-66
2024/04/18 07:07:47;;;;;;;5.60;3.20;;;9.20;82.10;;;;;;11068424;26;20823;-65
2024/04/18 07:12:52;;;;;;;6.67;2.60;;;9.30;81.00;;;;;;11068238;26;20373;-65
2024/04/18 07:17:57;;;;;;;7.17;3.20;;;9.40;80.50;;;;;;11068270;26;22549;-65
2024/04/18 07:23:06;;;;;;;7.10;2.90;;;9.50;80.50;;;;;;11076425;26;20323;-66
2024/04/18 07:28:11;;;;;;;6.83;2.60;;;9.60;80.30;;;;;;11075651;26;21132;-66
2024/04/18 07:33:16;;;;;;;4.22;2.45;;;9.80;80.30;;;;;;11078979;26;20354;-66
2024/04/18 07:38:25;;;;;;;6.90;2.40;;;9.80;79.80;;;;;;11074489;26;20237;-66
2024/04/18 07:43:30;;;;;;;7.47;2.10;;;9.90;79.60;;;;;;11071018;26;20688;-66
2024/04/18 07:48:35;;;;;;;6.57;2.35;;;9.90;79.80;;;;;;11071249;26;20351;-66
2024/04/18 07:53:44;;;;;;;5.70;2.00;;;10.10;78.40;;;;;;11070329;26;21008;-67
2024/04/18 07:58:49;;;;;;;7.22;2.20;;;10.20;78.70;;;;;;11067988;26;20304;-66
2024/04/18 08:03:56;;;;;;;5.68;2.50;;;10.30;77.90;;;;;;11066412;26;21803;-67
2024/04/18 08:09:24;;;;;;;5.53;2.30;;;10.30;78.00;;;;;;11063934;26;22440;-67
2024/04/18 08:14:34;;;;;;;6.20;2.03;;;10.40;77.70;;;;;;11062518;26;20237;-67
2024/04/18 08:19:45;;;;;;;4.88;2.63;;;10.40;77.30;;;;;;11055949;26;20253;-64
2024/04/18 08:24:53;;;;;;;6.72;2.75;;;10.40;77.60;;;;;;11052677;26;20239;-63
2024/04/18 08:29:58;;;;;;;7.43;2.70;;;10.50;77.90;;;;;;11050890;26;20249;-66
2024/04/18 08:35:03;;;;;;;7.35;2.70;;;10.50;77.70;;;;;;11056748;26;20234;-65
2024/04/18 08:40:13;;;;;;;6.35;2.67;;;10.40;76.90;;;;;;11053105;26;20760;-65
2024/04/18 08:45:20;;;;;;;5.68;2.63;;;10.40;77.60;;;;;;11051681;26;20239;-65
2024/04/18 08:50:26;;;;;;;5.90;2.40;;;10.50;77.50;;;;;;11060615;26;20321;-66
2024/04/18 08:55:35;;;;;;;7.38;1.90;;;10.60;77.60;;;;;;11061455;26;20234;-66
2024/04/18 09:00:42;;;;;;;5.82;2.30;;;10.60;77.30;;;;;;11061265;26;20344;-65
2024/04/18 09:05:48;;;;;;;6.57;2.33;;;10.50;77.20;;;;;;11056708;26;20246;-65
2024/04/18 09:10:56;;;;;;;5.60;2.42;;;10.40;77.30;;;;;;11056121;26;20285;-66
2024/04/18 09:16:01;;;;;;;5.30;2.45;;;10.50;77.60;;;;;;11057207;26;20316;-66
2024/04/18 09:21:10;;;;;;;6.75;2.40;;;10.60;77.20;;;;;;11054490;26;20230;-65
2024/04/18 09:26:18;;;;;;;4.93;2.33;;;10.60;77.20;;;;;;11055746;26;20884;-66
2024/04/18 09:31:26;;;;;;;9.88;2.53;;;10.70;77.40;;;;;;11064338;26;21059;-66
2024/04/18 09:36:42;;;;;;;3.95;1.80;;;10.90;77.20;;;;;;11060048;26;20307;-65
2024/04/18 09:41:53;;;;;;;4.07;1.67;;;11.00;76.90;;;;;;11063696;26;20815;-64
2024/04/18 09:47:00;;;;;;;4.28;1.70;;;11.00;76.30;;;;;;11059851;26;20242;-65
2024/04/18 09:52:08;;;;;;;5.15;1.50;;;10.90;75.00;;;;;;11064633;26;20322;-65
2024/04/18 09:57:17;;;;;;;6.95;1.45;;;10.70;74.70;;;;;;11065395;26;20295;-65
2024/04/18 10:02:24;;;;;;;4.47;1.75;;;10.90;75.70;;;;;;11062509;26;20234;-65
2024/04/18 10:07:31;;;;;;;3.92;1.63;;;11.20;75.60;;;;;;11059688;26;20239;-65
2024/04/18 10:12:38;;;;;;;3.97;1.55;;;11.40;76.90;;;;;;11061155;26;20598;-66
2024/04/18 10:17:44;;;;;;;5.10;2.60;;;11.50;75.60;;;;;;11056608;26;20247;-65
2024/04/18 10:22:58;;;;;;;5.03;2.10;;;11.40;74.60;;;;;;11061155;26;20933;-66
2024/04/18 10:28:18;;;;;;;5.20;1.98;;;11.40;75.30;;;;;;11058722;26;20242;-66
2024/04/18 10:33:31;;;;;;;3.47;1.60;;;11.60;75.20;;;;;;11060747;26;21321;-67
2024/04/18 10:38:36;;;;;;;2.13;1.30;;;11.90;75.30;;;;;;11056657;26;20234;-65
2024/04/18 10:43:45;;;;;;;2.83;0.98;;;12.00;74.40;;;;;;11058912;26;20242;-66
2024/04/18 10:48:56;;;;;;;5.13;1.10;;;11.90;71.00;;;;;;11063465;26;20237;-65
2024/04/18 10:54:02;;;;;;;1.95;1.08;;;11.90;71.90;;;;;;11067347;26;20343;-66
2024/04/18 10:59:12;;;;;;;2.33;1.13;;;12.10;72.60;;;;;;11069882;26;20821;-65
2024/04/18 11:04:18;;;;;;;3.70;1.08;;;12.40;72.10;;;;;;11071179;26;20350;-65
2024/04/18 11:09:24;;;;;;;2.28;1.00;;;12.50;69.80;;;;;;11068362;26;20238;-73
2024/04/18 11:14:32;;;;;;;0.93;0.70;;;12.50;70.10;;;;;;11067658;26;20320;-73
2024/04/18 11:19:37;;;;;;;2.47;1.27;;;12.50;68.10;;;;;;11067257;26;20348;-68
2024/04/18 11:24:43;;;;;;;2.85;0.90;;;12.60;68.40;;;;;;11069284;26;20620;-71
2024/04/18 11:29:54;;;;;;;1.65;0.70;;;12.90;69.40;;;;;;11062545;26;20294;-72
2024/04/18 11:34:59;;;;;;;3.53;0.93;;;12.70;68.20;;;;;;11062564;26;20245;-71
2024/04/18 11:40:19;;;;;;;1.83;0.73;;;12.90;69.30;;;;;;11064245;26;20234;-71
2024/04/18 11:45:27;;;;;;;3.58;0.90;;;13.30;69.50;;;;;;11062791;26;20349;-67
2024/04/18 11:50:33;;;;;;;2.17;0.85;;;13.70;68.20;;;;;;11087236;26;20239;-66
2024/04/18 11:55:38;;;;;;;1.90;0.90;;;13.90;68.00;;;;;;11136236;26;20241;-68
2024/04/18 12:00:46;;;;;;;2.42;0.80;;;14.10;68.50;;;;;;11117002;26;20238;-68
2024/04/18 12:05:52;;;;;;;2.67;1.10;;;13.90;65.10;;;;;;11094766;26;20233;-67
2024/04/18 12:10:57;;;;;;;1.95;0.88;;;13.90;68.10;;;;;;11081076;26;20599;-68
2024/04/18 12:16:05;;;;;;;2.42;0.85;;;13.90;66.20;;;;;;11086792;26;20316;-69
2024/04/18 12:21:11;;;;;;;2.38;0.90;;;14.10;66.00;;;;;;11067966;26;20234;-68
2024/04/18 12:26:17;;;;;;;3.00;1.00;;;14.10;66.10;;;;;;11069599;26;20245;-66
2024/04/18 12:31:25;;;;;;;0.95;0.68;;;14.10;66.70;;;;;;11071017;26;20234;-68
2024/04/18 12:36:30;;;;;;;1.58;0.60;;;14.30;65.90;;;;;;11067267;26;20392;-70
2024/04/18 12:41:35;;;;;;;2.80;0.80;;;14.10;64.40;;;;;;11060197;26;20303;-68
2024/04/18 12:46:44;;;;;;;3.47;0.82;;;14.50;66.60;;;;;;11065096;26;21487;-69
2024/04/18 12:51:49;;;;;;;4.97;0.95;;;15.20;66.10;;;;;;11073258;26;20748;-68
2024/04/18 12:56:55;;;;;;;1.63;0.73;;;15.40;63.80;;;;;;11068425;26;20340;-69
2024/04/18 13:02:03;;;;;;;2.08;0.80;;;15.10;60.70;;;;;;11069973;26;20241;-67
2024/04/18 13:07:08;;;;;;;2.05;0.90;;;14.60;61.10;;;;;;11070783;26;20349;-72
2024/04/18 13:12:14;;;;;;;1.48;1.00;;;14.40;60.50;;;;;;11068332;26;21398;-68
2024/04/18 13:17:22;;;;;;;1.85;0.70;;;14.50;62.30;;;;;;11067908;26;20246;-72
2024/04/18 13:22:27;;;;;;;1.95;0.98;;;15.10;63.60;;;;;;11100802;26;20654;-67
2024/04/18 13:27:33;;;;;;;1.13;0.73;;;15.80;59.30;;;;;;11115706;26;20358;-67
2024/04/18 13:32:41;;;;;;;2.92;0.80;;;16.30;61.20;;;;;;11116947;26;20329;-68
2024/04/18 13:37:46;;;;;;;2.90;0.60;;;16.40;59.80;;;;;;11105113;26;22271;-69
2024/04/18 13:42:52;;;;;;;1.52;0.70;;;16.00;59.80;;;;;;11113934;26;20238;-69
2024/04/18 13:48:00;;;;;;;2.75;0.93;;;15.50;60.50;;;;;;11114962;26;20693;-66
2024/04/18 13:53:06;;;;;;;1.98;0.73;;;15.30;60.80;;;;;;11037257;26;20238;-67
2024/04/18 13:58:12;;;;;;;2.92;0.90;;;15.00;61.30;;;;;;11110282;26;20346;-70
2024/04/18 14:03:20;;;;;;;1.42;0.80;;;14.80;59.80;;;;;;11113563;26;20334;-70
2024/04/18 14:08:26;;;;;;;1.00;0.60;;;14.60;60.30;;;;;;11111466;26;20242;-69
2024/04/18 14:13:31;;;;;;;1.15;0.70;;;14.50;60.80;;;;;;11121119;26;20233;-68
2024/04/18 14:18:51;;;;;;;2.03;0.60;;;14.80;60.80;;;;;;11122255;26;20303;-68
2024/04/18 14:23:57;;;;;;;1.77;0.70;;;14.60;58.40;;;;;;11127203;26;20308;-68
2024/04/18 14:29:02;;;;;;;1.52;0.60;;;14.30;59.50;;;;;;11112215;26;21829;-68
2024/04/18 14:34:10;;;;;;;2.08;0.70;;;14.30;59.60;;;;;;11106107;26;20304;-71
2024/04/18 14:39:16;;;;;;;1.60;0.70;;;15.30;60.70;;;;;;11088274;26;20384;-69
2024/04/18 14:44:21;;;;;;;1.40;0.65;;;15.50;59.30;;;;;;11076987;26;20357;-68
2024/04/18 14:49:33;;;;;;;4.15;0.77;;;15.30;58.60;;;;;;11078196;26;20284;-69
2024/04/18 14:54:38;;;;;;;3.88;1.02;;;15.10;59.10;;;;;;11081237;26;20249;-67
2024/04/18 14:59:44;;;;;;;1.55;0.85;;;15.50;60.20;;;;;;11081783;26;20333;-69
2024/04/18 15:04:52;;;;;;;2.85;0.77;;;15.90;59.80;;;;;;11088287;26;20341;-68
2024/04/18 15:09:58;;;;;;;2.15;0.90;;;15.60;59.00;;;;;;11089134;26;20238;-69
2024/04/18 15:15:03;;;;;;;2.05;0.93;;;15.20;58.80;;;;;;11071064;26;20242;-69
2024/04/18 15:20:12;;;;;;;3.38;0.80;;;14.90;57.80;;;;;;11072593;26;20315;-69
2024/04/18 15:25:19;;;;;;;2.78;0.95;;;14.60;57.10;;;;;;11077239;26;20234;-70
2024/04/18 15:30:25;;;;;;;1.70;0.90;;;14.90;58.40;;;;;;11070651;26;20324;-68
2024/04/18 15:35:33;;;;;;;3.13;1.23;;;15.50;56.70;;;;;;11113425;26;20230;-67
2024/04/18 15:40:39;;;;;;;1.48;0.95;;;15.10;57.00;;;;;;11160573;26;20230;-67
2024/04/18 15:45:45;;;;;;;1.90;1.10;;;14.80;56.40;;;;;;11168013;26;20828;-67
2024/04/18 15:50:53;;;;;;;1.45;0.90;;;14.40;57.50;;;;;;11166871;26;20883;-67
2024/04/18 15:55:58;;;;;;;1.75;1.10;;;14.10;56.60;;;;;;11153809;26;20851;-66
2024/04/18 16:01:04;;;;;;;2.85;0.90;;;13.90;57.90;;;;;;11147357;26;20225;-67
2024/04/18 16:06:12;;;;;;;2.17;1.10;;;13.70;57.40;;;;;;11153825;26;20237;-65
2024/04/18 16:11:18;;;;;;;2.55;0.98;;;13.80;58.90;;;;;;11155194;26;20262;-64
2024/04/18 16:16:23;;;;;;;1.60;0.90;;;13.80;58.80;;;;;;11161803;26;20277;-65
2024/04/18 16:21:32;;;;;;;2.90;1.30;;;13.80;58.20;;;;;;11151750;26;20224;-65
2024/04/18 16:26:38;;;;;;;2.28;0.90;;;13.80;58.60;;;;;;11165470;26;20337;-65
2024/04/18 16:31:43;;;;;;;4.57;0.80;;;13.70;58.50;;;;;;11149086;26;20226;-67
2024/04/18 16:36:51;;;;;;;2.28;0.90;;;13.70;57.40;;;;;;11150498;26;20737;-65
2024/04/18 16:42:16;;;;;;;2.80;1.17;;;13.50;56.60;;;;;;11150103;26;20311;-65
2024/04/18 16:47:21;;;;;;;1.70;0.90;;;13.50;57.20;;;;;;11145130;26;20234;-68
2024/04/18 16:52:29;;;;;;;3.17;0.80;;;13.40;57.00;;;;;;11148894;26;20825;-67
2024/04/18 16:57:35;;;;;;;1.50;0.90;;;13.30;57.30;;;;;;11141998;26;20322;-66
2024/04/18 17:02:41;;;;;;;2.92;1.50;;;13.30;58.80;;;;;;11143119;26;20853;-65
2024/04/18 17:07:51;;;;;;;2.08;1.10;;;13.30;56.80;;;;;;11152212;26;20709;-66
2024/04/18 17:12:57;;;;;;;3.92;1.33;;;13.10;57.50;;;;;;11082531;26;20253;-62
2024/04/18 17:18:02;;;;;;;2.35;0.98;;;13.00;56.90;;;;;;11090657;26;20359;-62
2024/04/18 17:23:11;;;;;;;4.35;1.40;;;12.90;57.20;;;;;;11080316;26;20342;-64
2024/04/18 17:28:16;;;;;;;4.68;1.33;;;12.80;56.80;;;;;;11070355;26;20336;-63
2024/04/18 17:33:21;;;;;;;3.15;1.40;;;12.80;57.50;;;;;;11081965;26;20709;-65
2024/04/18 17:38:29;;;;;;;2.85;1.20;;;12.80;57.80;;;;;;11082041;26;20336;-64
2024/04/18 17:43:35;;;;;;;3.97;1.38;;;12.70;58.20;;;;;;11070906;26;20347;-64
2024/04/18 17:48:40;;;;;;;4.38;1.20;;;12.70;57.80;;;;;;11079465;26;20732;-63
2024/04/18 17:53:48;;;;;;;5.65;1.60;;;12.70;58.40;;;;;;11106675;26;21079;-63
2024/04/18 17:58:54;;;;;;;4.03;1.40;;;12.60;57.70;;;;;;11100199;26;20229;-61
2024/04/18 18:03:59;;;;;;;3.90;1.58;;;12.50;57.90;;;;;;11097154;26;20795;-64
2024/04/18 18:09:08;;;;;;;5.68;1.55;;;12.40;57.80;;;;;;11096606;26;20584;-63
2024/04/18 18:14:14;;;;;;;3.00;1.58;;;12.40;59.40;;;;;;11115155;26;20240;-62
2024/04/18 18:19:19;;;;;;;3.83;1.45;;;12.40;59.10;;;;;;11096167;26;20374;-62
2024/04/18 18:24:27;;;;;;;3.55;1.33;;;12.40;59.10;;;;;;11082638;26;20254;-61
2024/04/18 18:29:33;;;;;;;5.20;1.40;;;12.30;59.10;;;;;;11088759;26;20312;-63
2024/04/18 18:34:39;;;;;;;3.30;1.48;;;12.30;59.40;;;;;;11098245;26;20238;-61
2024/04/18 18:39:47;;;;;;;5.75;1.50;;;12.20;59.90;;;;;;11088613;26;20326;-64
2024/04/18 18:44:53;;;;;;;3.25;1.45;;;12.20;59.90;;;;;;11091529;26;20241;-62
2024/04/18 18:49:58;;;;;;;4.68;1.63;;;12.10;59.60;;;;;;11088821;26;20331;-62
2024/04/18 18:55:07;;;;;;;2.95;1.48;;;12.00;59.70;;;;;;11086463;26;20234;-63
2024/04/18 19:00:13;;;;;;;2.88;1.50;;;11.90;60.10;;;;;;11091942;26;20260;-61
2024/04/18 19:05:19;;;;;;;5.88;1.65;;;11.80;60.20;;;;;;11093552;26;20237;-63
2024/04/18 19:10:27;;;;;;;3.83;2.10;;;11.80;60.60;;;;;;11095969;26;20338;-63
2024/04/18 19:15:33;;;;;;;4.28;1.80;;;11.80;60.90;;;;;;11088438;26;20355;-62
2024/04/18 19:20:38;;;;;;;5.43;1.52;;;11.70;61.10;;;;;;11084396;26;20322;-63
2024/04/18 19:25:46;;;;;;;3.38;1.63;;;11.70;61.00;;;;;;11090717;26;20233;-63
2024/04/18 19:30:54;;;;;;;2.42;1.30;;;11.60;61.10;;;;;;11083644;26;20330;-62
2024/04/18 19:36:00;;;;;;;2.35;1.50;;;11.60;61.10;;;;;;11083037;26;20351;-60
2024/04/18 19:41:08;;;;;;;4.13;1.50;;;11.60;61.50;;;;;;11087581;26;20720;-61
2024/04/18 19:46:14;;;;;;;2.92;1.88;;;11.50;61.40;;;;;;11085775;26;20257;-64
2024/04/18 19:51:19;;;;;;;4.35;1.63;;;11.40;61.50;;;;;;11070638;26;20292;-63
2024/04/18 19:56:27;;;;;;;2.05;1.50;;;11.30;61.50;;;;;;11071615;26;20254;-62
2024/04/18 20:01:34;;;;;;;3.50;1.70;;;11.30;61.90;;;;;;11078238;26;22034;-63
2024/04/18 20:06:41;;;;;;;2.53;1.58;;;11.20;62.10;;;;;;11068081;26;20254;-60
2024/04/18 20:11:49;;;;;;;3.85;1.40;;;11.20;62.20;;;;;;11065426;26;20250;-60
2024/04/18 20:16:54;;;;;;;5.30;1.85;;;11.20;62.30;;;;;;11068040;26;22410;-61
2024/04/18 20:22:00;;;;;;;3.10;1.48;;;11.10;62.50;;;;;;11074530;26;20233;-63
2024/04/18 20:27:08;;;;;;;4.60;1.58;;;11.00;62.70;;;;;;11069386;26;20252;-61
2024/04/18 20:32:13;;;;;;;5.43;1.48;;;10.90;62.60;;;;;;11075133;26;20572;-63
2024/04/18 20:37:19;;;;;;;4.97;1.80;;;10.90;62.80;;;;;;11082746;26;22071;-63
2024/04/18 20:42:27;;;;;;;2.73;1.70;;;10.80;62.80;;;;;;11064238;26;22322;-63
2024/04/18 20:47:33;;;;;;;2.78;1.60;;;10.80;62.90;;;;;;11069307;26;20341;-61
2024/04/18 20:52:39;;;;;;;6.13;2.20;;;10.80;63.00;;;;;;11077797;26;20250;-63
2024/04/18 20:57:47;;;;;;;3.33;1.77;;;10.70;63.30;;;;;;11068815;26;20253;-62
2024/04/18 21:02:53;;;;;;;3.93;2.00;;;10.70;63.50;;;;;;11064928;26;20246;-62
2024/04/18 21:07:58;;;;;;;5.10;2.00;;;10.70;63.50;;;;;;11079312;26;20831;-62
2024/04/18 21:13:07;;;;;;;4.20;2.27;;;10.70;63.70;;;;;;11077107;26;20241;-63
2024/04/18 21:18:14;;;;;;;2.83;1.75;;;10.60;63.90;;;;;;11079407;26;20293;-65
2024/04/18 21:23:19;;;;;;;5.97;2.40;;;10.60;64.20;;;;;;11079646;26;20323;-60
2024/04/18 21:28:27;;;;;;;5.20;2.08;;;10.50;64.30;;;;;;11077647;26;20372;-62
2024/04/18 21:33:32;;;;;;;4.70;2.20;;;10.50;64.00;;;;;;11071620;26;20307;-61
2024/04/18 21:38:38;;;;;;;3.63;2.30;;;10.50;64.30;;;;;;11079579;26;20258;-61
2024/04/18 21:44:05;;;;;;;4.33;2.47;;;10.50;64.20;;;;;;11078787;26;20254;-60
2024/04/18 21:49:10;;;;;;;8.05;2.60;;;10.50;64.30;;;;;;11074433;26;20300;-62
2024/04/18 21:54:15;;;;;;;7.20;2.80;;;10.50;64.30;;;;;;11080032;26;20250;-62
2024/04/18 21:59:23;;;;;;;6.17;2.77;;;10.40;64.10;;;;;;11076168;26;20349;-62
2024/04/18 22:04:29;;;;;;;4.97;2.73;;;10.50;64.70;;;;;;11072787;26;20324;-62
2024/04/18 22:09:35;;;;;;;3.60;2.45;;;10.50;64.60;;;;;;11072270;26;20346;-61
2024/04/18 22:14:43;;;;;;;9.43;3.70;;;10.50;64.70;;;;;;11073016;26;20631;-62
2024/04/18 22:19:49;;;;;;;4.05;1.98;;;10.50;65.00;;;;;;11070943;26;20318;-63
2024/04/18 22:24:54;;;;;;;4.40;1.93;;;10.40;65.10;;;;;;11067136;26;20328;-63
2024/04/18 22:30:02;;;;;;;3.63;1.85;;;10.30;65.00;;;;;;11073113;26;20800;-63
2024/04/18 22:35:08;;;;;;;4.57;1.73;;;10.30;65.10;;;;;;11008730;26;20450;-63
2024/04/18 22:40:14;;;;;;;3.97;1.80;;;10.30;65.10;;;;;;11070000;26;20350;-63
2024/04/18 22:45:21;;;;;;;3.53;1.85;;;10.30;66.00;;;;;;11067979;26;20340;-62
2024/04/18 22:50:27;;;;;;;6.53;2.03;;;10.30;65.80;;;;;;11072959;26;21378;-63
2024/04/18 22:55:32;;;;;;;5.90;1.90;;;10.20;64.90;;;;;;11071021;26;20254;-63
2024/04/18 23:00:42;;;;;;;5.03;1.60;;;10.20;65.50;;;;;;11068183;26;20240;-62
2024/04/18 23:05:49;;;;;;;3.28;1.90;;;10.10;65.60;;;;;;11075561;26;20253;-62
2024/04/18 23:10:54;;;;;;;3.40;1.80;;;10.10;65.70;;;;;;11071700;26;20250;-63
2024/04/18 23:16:02;;;;;;;4.10;2.10;;;10.10;65.40;;;;;;11069593;26;20250;-63
2024/04/18 23:21:07;;;;;;;3.87;1.80;;;10.10;65.60;;;;;;11074346;26;20245;-63
2024/04/18 23:26:13;;;;;;;3.40;1.97;;;10.10;65.40;;;;;;11068024;26;21697;-63
2024/04/18 23:31:21;;;;;;;5.43;2.20;;;10.00;66.00;;;;;;11072673;26;20348;-63
2024/04/18 23:36:26;;;;;;;5.60;2.60;;;10.00;65.40;;;;;;11067384;26;20459;-63
2024/04/18 23:41:31;;;;;;;7.77;3.20;;;10.00;65.30;;;;;;11065735;26;20303;-63
2024/04/18 23:46:39;;;;;;;7.23;3.03;;;10.00;65.20;;;;;;11067828;26;20249;-63
2024/04/18 23:51:45;;;;;;;6.27;2.63;;;10.00;65.50;;;;;;11066671;26;20250;-62
2024/04/18 23:56:50;;;;;;;3.93;2.33;;;9.90;66.50;;;;;;11069126;26;20253;-63
